Time;durP1;ratioP1;P1;durP2;ratioP2;P2;SDS_P1;SDS_P2;PMS_P1;PMS_P2;Temp;Humidity;BMP_temperature;BMP_pressure;BME280_temperature;BME280_humidity;BME280_pressure;Samples;Min_cycle;Max_cycle;Signal;HPM_P1;HPM_P2
2022/05/07 05:41:54;;;;;;;;;18.25;14.25;;;;;15.42;56.62;101912.31;5070663;28;45792;-72
2022/05/07 05:44:19;;;;;;;;;16.25;13.25;;;;;15.70;56.27;101917.59;5053384;28;45161;-73
2022/05/07 05:46:46;;;;;;;;;11.67;11.67;;;;;15.94;55.88;101919.34;5056511;28;45428;-72
2022/05/07 05:49:12;;;;;;;;;15.67;13.33;;;;;16.44;55.45;101973.88;5072428;28;45405;-72
2022/05/07 05:51:39;;;;;;;;;13.00;13.00;;;;;16.66;54.56;101960.59;5053999;28;46158;-72
2022/05/07 05:54:06;;;;;;;;;16.33;14.00;;;;;16.88;54.15;101972.88;5049029;28;45564;-73
2022/05/07 05:56:31;;;;;;;;;19.33;13.67;;;;;17.01;53.70;101957.81;5050203;28;46036;-72
2022/05/07 05:58:57;;;;;;;;;13.67;12.00;;;;;17.07;53.49;101943.69;5054184;28;45224;-72
2022/05/07 06:01:23;;;;;;;;;16.00;15.67;;;;;17.29;53.34;101958.53;5053376;28;46362;-70
2022/05/07 06:03:48;;;;;;;;;13.67;12.00;;;;;17.29;52.80;101940.00;5052412;28;45443;-73
2022/05/07 06:06:14;;;;;;;;;13.33;11.67;;;;;17.52;52.51;101955.72;5052504;28;45416;-72
2022/05/07 06:08:42;;;;;;;;;15.67;15.00;;;;;17.58;52.16;101946.84;5048346;28;45367;-73
2022/05/07 06:11:07;;;;;;;;;18.00;13.67;;;;;17.75;52.18;101959.97;5053034;28;46264;-72
2022/05/07 06:13:33;;;;;;;;;18.67;14.67;;;;;17.78;51.89;101947.56;5052790;28;45469;-72
2022/05/07 06:15:59;;;;;;;;;19.33;14.00;;;;;17.90;51.65;101949.28;5052948;28;45438;-72
2022/05/07 06:18:25;;;;;;;;;15.67;14.67;;;;;17.97;51.34;101952.75;5053211;28;45331;-72
2022/05/07 06:20:51;;;;;;;;;17.67;15.00;;;;;17.99;51.52;101949.19;5040828;28;46000;-72
2022/05/07 06:23:17;;;;;;;;;18.00;14.33;;;;;18.07;51.29;101962.38;5038304;28;45479;-71
2022/05/07 06:28:27;;;;;;;;;16.67;14.33;;;;;18.19;51.18;101954.28;5033031;28;45431;-72
2022/05/07 06:30:54;;;;;;;;;20.00;15.00;;;;;18.22;50.73;101958.66;5038190;28;46474;-72
2022/05/07 06:33:23;;;;;;;;;18.00;18.00;;;;;18.25;50.85;101963.97;5032812;28;45279;-73
2022/05/07 06:35:49;;;;;;;;;21.67;19.00;;;;;18.31;50.29;101960.34;5032547;28;45463;-72
2022/05/07 06:38:18;;;;;;;;;17.33;15.67;;;;;18.35;50.47;101965.63;5041858;28;45316;-72
2022/05/07 06:40:45;;;;;;;;;15.33;13.33;;;;;18.31;50.36;101957.72;5063580;28;45365;-72
2022/05/07 06:43:11;;;;;;;;;14.33;12.67;;;;;18.31;50.17;101965.66;5073917;27;45456;-72
2022/05/07 06:45:37;;;;;;;;;12.33;11.67;;;;;17.99;50.40;101904.13;5067006;28;45248;-72
2022/05/07 06:48:08;;;;;;;;;13.67;13.00;;;;;18.49;50.15;101989.34;5072880;27;45426;-72
2022/05/07 06:50:34;;;;;;;;;15.67;12.33;;;;;18.21;50.15;101936.59;5071995;28;46135;-71
2022/05/07 06:52:59;;;;;;;;;20.33;14.67;;;;;18.58;50.08;101985.69;5059371;28;45374;-71
2022/05/07 06:55:25;;;;;;;;;19.67;15.33;;;;;18.34;49.82;101949.72;5058854;28;45344;-72
2022/05/07 06:57:53;;;;;;;;;17.33;16.67;;;;;18.69;49.77;101996.19;5059250;28;46343;-71
2022/05/07 07:00:18;;;;;;;;;21.33;16.33;;;;;18.70;49.68;101987.31;5045146;28;45504;-73
2022/05/07 07:02:44;;;;;;;;;22.67;15.33;;;;;18.79;49.75;102000.53;5058876;28;45528;-72
2022/05/07 07:05:10;;;;;;;;;16.00;15.33;;;;;18.83;49.40;101999.59;5051405;28;45437;-72
2022/05/07 07:07:35;;;;;;;;;16.33;15.33;;;;;18.64;49.50;101965.28;5050995;28;45414;-73
2022/05/07 07:10:01;;;;;;;;;22.33;16.67;;;;;18.90;49.15;102008.38;5058706;28;46167;-73
2022/05/07 07:12:28;;;;;;;;;16.00;15.33;;;;;18.92;49.13;102003.91;5055960;28;45462;-70
2022/05/07 07:15:01;;;;;;;;;18.67;14.00;;;;;18.80;49.27;101973.09;5058652;28;45367;-72
2022/05/07 07:17:27;;;;;;;;;16.00;15.00;;;;;18.95;48.85;102003.88;5040923;28;45470;-71
2022/05/07 07:19:54;;;;;;;;;16.33;14.67;;;;;18.95;49.30;102002.09;5058159;28;45356;-72
2022/05/07 07:22:19;;;;;;;;;13.67;12.00;;;;;17.97;48.71;101814.91;5058243;28;46049;-73
2022/05/07 07:24:45;;;;;;;;;12.00;11.67;;;;;19.10;49.00;102002.78;5056743;28;45500;-72
2022/05/07 07:27:11;;;;;;;;;15.00;13.00;;;;;18.60;48.86;101914.91;5056823;28;45299;-72
2022/05/07 07:29:37;;;;;;;;;16.00;15.33;;;;;19.18;48.50;102001.81;5038089;28;46135;-73
2022/05/07 07:32:03;;;;;;;;;17.00;16.33;;;;;19.00;48.71;101965.75;5036728;28;45515;-72
2022/05/07 07:34:28;;;;;;;;;19.00;16.00;;;;;18.64;48.59;101898.06;5055815;28;45405;-72
2022/05/07 07:36:54;;;;;;;;;21.67;17.67;;;;;19.30;48.28;102005.19;5058536;28;45786;-74
2022/05/07 07:39:20;;;;;;;;;14.00;13.00;;;;;19.10;48.65;101963.88;5059099;28;45421;-72
2022/05/07 07:41:46;;;;;;;;;16.00;14.33;;;;;19.24;48.55;101990.19;5058074;28;45705;-71
2022/05/07 07:44:12;;;;;;;;;19.00;18.67;;;;;19.30;48.16;101995.44;5059187;28;45470;-72
2022/05/07 07:49:22;;;;;;;;;16.67;15.67;;;;;19.40;48.29;102001.50;5058259;28;45303;-71
2022/05/07 07:51:47;;;;;;;;;17.33;14.33;;;;;19.43;47.94;102009.41;5058846;28;45350;-73
2022/05/07 07:54:14;;;;;;;;;17.33;15.33;;;;;19.36;48.37;101995.38;5058494;28;45461;-73
2022/05/07 07:56:42;;;;;;;;;13.67;13.67;;;;;19.43;48.34;101997.03;5058370;28;45309;-73
2022/05/07 07:59:08;;;;;;;;;16.00;11.33;;;;;19.46;47.95;101996.97;5057873;28;45444;-73
2022/05/07 08:01:33;;;;;;;;;16.67;16.33;;;;;19.34;48.14;101975.00;5056525;28;45718;-72
2022/05/07 08:03:59;;;;;;;;;16.00;15.67;;;;;19.49;48.13;101991.59;5056686;28;46167;-74
2022/05/07 08:06:25;;;;;;;;;17.33;16.33;;;;;19.52;47.98;101992.47;5058073;28;45455;-74
2022/05/07 08:11:41;;;;;;;;;23.67;19.00;;;;;19.58;47.94;101997.69;5057762;28;45521;-73
2022/05/07 08:14:08;;;;;;;;;15.67;15.67;;;;;19.56;47.96;101991.53;5041516;28;45426;-73
2022/05/07 08:16:38;;;;;;;;;16.67;14.67;;;;;19.53;47.80;101983.56;5059530;28;45514;-73
2022/05/07 08:19:04;;;;;;;;;17.33;12.67;;;;;19.45;47.76;101973.94;5057946;28;46201;-72
2022/05/07 08:21:29;;;;;;;;;13.00;11.33;;;;;19.57;47.73;101983.50;5057624;28;45493;-72
2022/05/07 08:23:55;;;;;;;;;10.67;10.67;;;;;19.54;47.65;101978.25;5057941;28;45158;-74
2022/05/07 08:26:21;;;;;;;;;14.33;12.33;;;;;19.67;47.50;101992.22;5058698;28;45529;-71
2022/05/07 08:28:47;;;;;;;;;13.67;11.00;;;;;19.51;47.88;101967.69;5058954;28;45426;-73
2022/05/07 08:31:13;;;;;;;;;12.67;12.33;;;;;19.60;47.79;101977.25;5059613;28;45865;-71
2022/05/07 08:33:41;;;;;;;;;15.67;13.00;;;;;19.59;47.79;101970.22;5057922;28;45445;-72
2022/05/07 08:36:07;;;;;;;;;11.33;11.33;;;;;19.65;47.53;101973.66;5060034;28;45447;-73
2022/05/07 08:38:34;;;;;;;;;14.33;13.33;;;;;19.75;47.45;101981.50;5059901;28;45386;-71
2022/05/07 08:41:00;;;;;;;;;12.00;10.33;;;;;19.63;47.27;101961.28;5059854;28;45196;-73
2022/05/07 08:43:31;;;;;;;;;13.67;12.67;;;;;19.85;47.17;101983.09;5060781;28;45544;-72
2022/05/07 08:45:57;;;;;;;;;11.67;11.67;;;;;19.67;46.85;101939.06;5043425;28;45349;-72
2022/05/07 08:48:26;;;;;;;;;8.33;8.33;;;;;20.09;47.25;101995.97;5060693;28;45513;-73
2022/05/07 08:50:56;;;;;;;;;13.33;12.33;;;;;20.19;46.93;101993.16;5061109;28;45433;-72
2022/05/07 08:53:21;;;;;;;;;11.33;10.00;;;;;20.23;46.70;101985.09;5060724;28;45372;-72
2022/05/07 08:55:54;;;;;;;;;14.33;11.00;;;;;20.20;46.63;101966.53;5060945;28;45291;-72
2022/05/07 08:58:20;;;;;;;;;11.33;10.00;;;;;20.32;46.39;101976.94;5062201;28;46308;-73
2022/05/07 09:00:49;;;;;;;;;12.33;11.67;;;;;20.43;46.31;101973.19;5045160;28;45322;-72
2022/05/07 09:03:16;;;;;;;;;11.33;10.00;;;;;20.65;46.10;101987.00;5059963;28;45320;-73
2022/05/07 09:05:43;;;;;;;;;17.67;11.67;;;;;20.73;45.83;101993.03;5058330;28;45378;-74
2022/05/07 09:08:11;;;;;;;;;15.00;15.00;;;;;20.67;45.73;101964.75;5055711;28;48050;-74
2022/05/07 09:10:39;;;;;;;;;15.33;13.33;;;;;20.90;45.57;101984.69;5056902;28;45501;-72
2022/05/07 09:13:14;;;;;;;;;14.67;13.00;;;;;21.01;45.59;101974.69;5055720;28;45521;-72
2022/05/07 09:15:57;;;;;;;;;16.33;12.00;;;;;21.06;44.99;101974.59;5057338;28;45449;-72
2022/05/07 09:18:25;;;;;;;;;14.33;11.33;;;;;21.17;45.13;101984.09;5057629;28;46281;-73
2022/05/07 09:21:16;;;;;;;;;16.67;14.00;;;;;21.11;45.07;101970.03;5060301;28;45247;-72
2022/05/07 09:23:47;;;;;;;;;13.33;10.67;;;;;21.09;44.77;101951.41;5057498;28;45377;-74
2022/05/07 09:26:24;;;;;;;;;13.33;12.67;;;;;21.23;44.92;101964.41;5058084;28;45355;-73
2022/05/07 09:28:50;;;;;;;;;12.67;9.67;;;;;21.16;44.95;101955.69;5060052;28;46483;-73
2022/05/07 09:31:23;;;;;;;;;15.00;12.00;;;;;21.27;44.94;101947.47;5057072;28;45475;-74
2022/05/07 09:33:49;;;;;;;;;21.33;16.00;;;;;21.40;44.69;101958.72;5056893;28;45426;-71
2022/05/07 09:36:15;;;;;;;;;19.33;17.00;;;;;21.13;44.69;101945.09;5056584;28;45399;-71
2022/05/07 09:38:40;;;;;;;;;13.67;13.00;;;;;21.26;45.06;101966.13;5056404;28;46191;-71
2022/05/07 09:41:06;;;;;;;;;14.00;13.00;;;;;21.39;44.75;101964.94;5056076;28;45544;-71
2022/05/07 09:43:32;;;;;;;;;18.00;15.67;;;;;21.49;44.75;101960.31;5056220;28;45371;-72
2022/05/07 09:45:58;;;;;;;;;18.67;14.00;;;;;21.47;44.89;101957.66;5055188;28;45254;-73
2022/05/07 09:48:24;;;;;;;;;14.33;13.33;;;;;21.40;44.72;101940.06;5056327;28;46188;-73
2022/05/07 09:50:51;;;;;;;;;14.00;12.00;;;;;21.59;44.64;101968.06;5053918;28;45374;-72
2022/05/07 09:58:50;;;;;;;;;17.00;15.67;;;;;21.54;44.36;101926.41;5056010;28;45509;-74
2022/05/07 10:01:20;;;;;;;;;13.00;12.67;;;;;21.76;44.41;101962.31;5057102;28;45391;-74
2022/05/07 10:04:06;;;;;;;;;16.00;15.00;;;;;21.84;43.87;101962.09;5057357;28;45468;-73
2022/05/07 10:06:53;;;;;;;;;13.33;12.00;;;;;21.87;44.15;101961.16;5055855;28;45332;-73
2022/05/07 10:09:40;;;;;;;;;13.67;11.00;;;;;21.94;44.25;101958.28;5056838;28;45431;-71
2022/05/07 10:12:07;;;;;;;;;13.00;13.00;;;;;21.96;44.14;101964.44;5056098;28;45395;-72
2022/05/07 10:14:32;;;;;;;;;14.00;14.00;;;;;22.14;43.97;101965.78;5055954;28;45465;-72
2022/05/07 10:17:08;;;;;;;;;14.00;12.00;;;;;22.28;43.95;101951.19;5055972;28;45401;-71
2022/05/07 10:19:39;;;;;;;;;10.67;8.67;;;;;22.40;43.56;101954.41;5055572;28;45387;-71
2022/05/07 10:22:23;;;;;;;;;11.00;10.00;;;;;22.56;43.05;101954.81;5037806;28;45509;-71
2022/05/07 10:25:10;;;;;;;;;14.33;12.00;;;;;22.66;42.72;101960.81;5055892;28;45387;-71
2022/05/07 10:27:44;;;;;;;;;10.67;10.67;;;;;22.73;42.85;101937.44;5056204;28;45440;-72
2022/05/07 10:30:17;;;;;;;;;12.33;10.33;;;;;22.85;42.37;101948.66;5057757;28;45480;-71
2022/05/07 10:33:03;;;;;;;;;11.00;11.00;;;;;22.93;42.30;101953.75;5058989;28;45544;-72
2022/05/07 10:35:44;;;;;;;;;11.00;10.67;;;;;22.88;42.16;101928.13;5059518;28;45375;-73
2022/05/07 10:38:16;;;;;;;;;13.00;11.67;;;;;22.96;42.23;101931.41;5059414;28;45288;-72
2022/05/07 10:41:04;;;;;;;;;13.67;11.33;;;;;23.12;41.98;101954.09;5058542;28;46385;-70
2022/05/07 10:43:36;;;;;;;;;18.33;17.67;;;;;22.85;41.88;101945.06;5059097;28;45335;-69
2022/05/07 10:46:07;;;;;;;;;12.00;12.00;;;;;22.36;42.54;101923.38;5059049;28;45350;-71
2022/05/07 10:48:46;;;;;;;;;16.67;14.33;;;;;22.35;43.23;101942.09;5048762;28;45431;-70
2022/05/07 10:51:31;;;;;;;;;12.33;10.33;;;;;22.35;43.47;101939.41;5036714;28;45514;-71
2022/05/07 10:54:03;;;;;;;;;9.00;9.00;;;;;22.48;43.29;101945.31;5038200;28;45469;-71
2022/05/07 10:56:33;;;;;;;;;10.00;10.00;;;;;22.60;42.71;101944.94;5039470;28;45578;-72
2022/05/07 10:59:00;;;;;;;;;11.00;10.00;;;;;22.74;42.75;101945.41;5039502;28;45289;-76
2022/05/07 11:01:28;;;;;;;;;11.00;11.00;;;;;22.85;42.68;101940.63;5038950;28;45450;-76
2022/05/07 11:04:08;;;;;;;;;13.33;10.00;;;;;22.75;42.65;101904.41;5037418;28;45551;-75
2022/05/07 11:06:44;;;;;;;;;10.00;9.33;;;;;23.04;42.81;101935.63;5037863;28;45350;-72
2022/05/07 11:09:24;;;;;;;;;12.67;11.33;;;;;23.09;41.53;101935.50;5039197;28;45414;-72
2022/05/07 11:11:54;;;;;;;;;10.67;10.67;;;;;23.11;41.98;101933.63;5038496;28;45457;-72
2022/05/07 11:14:24;;;;;;;;;11.67;11.00;;;;;23.17;41.73;101925.44;5038929;28;45288;-74
2022/05/07 11:16:51;;;;;;;;;11.33;11.00;;;;;23.19;41.38;101918.25;5038582;28;45457;-71
2022/05/07 11:19:26;;;;;;;;;15.33;14.67;;;;;23.16;41.54;101918.34;5038857;28;45376;-70
2022/05/07 11:21:53;;;;;;;;;13.33;13.33;;;;;23.01;42.03;101919.69;5037961;28;45499;-72
2022/05/07 11:24:21;;;;;;;;;14.33;12.00;;;;;23.03;41.96;101925.84;5020205;28;45418;-70
2022/05/07 11:26:55;;;;;;;;;12.00;10.00;;;;;22.91;42.02;101893.28;5038386;28;45635;-70
2022/05/07 11:29:22;;;;;;;;;12.33;12.33;;;;;23.14;42.04;101917.50;5038621;28;45345;-71
2022/05/07 11:32:08;;;;;;;;;9.33;7.67;;;;;23.19;41.64;101917.38;5038601;28;46225;-71
2022/05/07 11:34:35;;;;;;;;;10.00;10.00;;;;;23.07;41.72;101905.28;5038967;28;45391;-71
2022/05/07 11:37:21;;;;;;;;;12.00;10.33;;;;;23.06;41.37;101914.19;5039333;28;45434;-72
2022/05/07 11:39:55;;;;;;;;;10.00;10.00;;;;;22.95;41.75;101919.84;5038932;28;45369;-75
2022/05/07 11:45:25;;;;;;;;;11.00;10.00;;;;;22.88;41.88;101915.63;5039519;28;45506;-71
2022/05/07 11:45:39;;;;;;;;;11.67;10.33;;;;;22.80;41.41;101904.28;5038110;28;45336;-71
2022/05/07 11:48:14;;;;;;;;;12.00;11.67;;;;;22.76;41.42;101916.88;5038295;28;45323;-71
2022/05/07 11:50:57;;;;;;;;;19.33;15.00;;;;;22.75;41.77;101920.44;5038621;28;45727;-74
2022/05/07 11:53:28;;;;;;;;;23.33;19.67;;;;;22.65;41.76;101902.97;5019903;28;46762;-70
2022/05/07 11:56:10;;;;;;;;;22.00;19.33;;;;;22.67;42.02;101911.81;5038237;28;45340;-68
2022/05/07 11:58:47;;;;;;;;;17.67;16.33;;;;;22.75;41.86;101919.59;5038228;28;45495;-73
2022/05/07 12:01:20;;;;;;;;;14.00;12.00;;;;;22.74;41.91;101913.38;5037794;28;45470;-68
2022/05/07 12:03:47;;;;;;;;;12.00;10.67;;;;;22.69;41.94;101903.75;5037716;28;45445;-72
2022/05/07 12:06:26;;;;;;;;;9.00;9.00;;;;;22.69;42.13;101898.41;5037887;28;45417;-71
2022/05/07 12:08:52;;;;;;;;;11.33;10.00;;;;;22.76;42.14;101914.19;5039671;28;45498;-71
2022/05/07 12:11:17;;;;;;;;;10.33;10.00;;;;;22.68;42.20;101891.31;5042338;28;45432;-73
2022/05/07 12:13:45;;;;;;;;;9.67;8.00;;;;;22.76;42.10;101906.19;5043398;28;46776;-71
2022/05/07 12:18:55;;;;;;;;;12.67;9.67;;;;;22.59;42.44;101880.00;5041171;28;45252;-78
2022/05/07 12:29:48;;;;;;;;;17.00;16.00;;;;;22.71;42.80;101900.13;5040645;28;45457;-75
2022/05/07 12:29:50;;;;;;;;;387.00;362.20;;;;;22.61;44.32;101904.88;5040806;28;45279;-71
2022/05/07 12:32:21;;;;;;;;;628.67;559.33;;;;;22.70;44.78;101910.84;5039038;28;45467;-71
2022/05/07 12:34:47;;;;;;;;;379.20;345.00;;;;;22.72;44.24;101884.97;5020177;28;45946;-74
2022/05/07 12:37:13;;;;;;;;;205.00;186.75;;;;;22.88;43.68;101893.38;5039705;28;45607;-74
2022/05/07 12:39:39;;;;;;;;;137.00;123.33;;;;;22.91;43.57;101885.28;5038993;28;45612;-72
2022/05/07 12:42:10;;;;;;;;;66.75;52.75;;;;;23.03;43.00;101901.81;5041903;28;45400;-70
2022/05/07 12:44:36;;;;;;;;;24.67;22.67;;;;;23.00;42.60;101898.38;5041166;28;45476;-71
2022/05/07 12:47:05;;;;;;;;;26.67;23.67;;;;;22.79;42.26;101874.03;5041046;28;45324;-72
2022/05/07 12:49:30;;;;;;;;;12.00;12.00;;;;;22.86;42.52;101899.63;5022154;28;45425;-73
2022/05/07 12:51:56;;;;;;;;;12.33;12.00;;;;;22.95;42.46;101889.59;5023948;28;45446;-72
2022/05/07 12:54:22;;;;;;;;;10.67;9.67;;;;;23.03;42.74;101895.59;5041680;28;45338;-72
2022/05/07 12:56:48;;;;;;;;;12.67;7.33;;;;;23.12;42.13;101889.09;5044743;28;45481;-73
2022/05/07 12:59:15;;;;;;;;;10.67;10.33;;;;;23.22;41.49;101899.41;5060515;28;45391;-73
2022/05/07 13:01:40;;;;;;;;;9.00;8.67;;;;;23.37;41.33;101898.06;5060983;28;45422;-71
2022/05/07 13:04:06;;;;;;;;;14.00;12.33;;;;;23.25;40.77;101867.28;5058659;28;45444;-72
2022/05/07 13:06:32;;;;;;;;;22.67;20.67;;;;;23.42;41.22;101898.78;5057715;28;45759;-73
2022/05/07 13:09:00;;;;;;;;;13.33;12.00;;;;;23.39;40.53;101884.63;5057278;28;45490;-73
2022/05/07 13:11:27;;;;;;;;;13.33;11.67;;;;;23.22;40.58;101853.13;5057913;28;45488;-74
2022/05/07 13:13:54;;;;;;;;;10.00;9.00;;;;;23.47;40.55;101882.59;5058705;28;45364;-73
2022/05/07 13:16:20;;;;;;;;;12.67;12.00;;;;;23.53;40.57;101884.16;5042120;28;45506;-74
2022/05/07 13:18:46;;;;;;;;;16.00;11.67;;;;;23.57;39.94;101877.81;5058767;28;45367;-74
2022/05/07 13:21:12;;;;;;;;;10.00;10.00;;;;;23.62;39.79;101879.38;5058124;28;45422;-74
2022/05/07 13:23:38;;;;;;;;;12.00;9.67;;;;;23.41;38.67;101848.03;5058520;28;45847;-73
2022/05/07 13:26:05;;;;;;;;;8.00;8.00;;;;;23.65;38.91;101863.22;5045599;28;45579;-73
2022/05/07 13:28:31;;;;;;;;;9.00;6.67;;;;;23.85;38.71;101861.69;5057780;28;45537;-72
2022/05/07 13:31:00;;;;;;;;;8.00;8.00;;;;;23.99;37.42;101866.53;5058336;28;45436;-72
2022/05/07 13:33:27;;;;;;;;;10.00;9.67;;;;;24.16;37.28;101863.25;5040297;28;47671;-72
2022/05/07 13:35:54;;;;;;;;;9.00;7.00;;;;;23.99;36.96;101821.94;5060472;28;45349;-71
2022/05/07 13:38:20;;;;;;;;;7.00;6.67;;;;;24.17;36.71;101827.53;5060013;28;45359;-74
2022/05/07 13:40:46;;;;;;;;;11.33;7.00;;;;;24.39;34.67;101835.59;5058159;28;45352;-74
2022/05/07 13:43:12;;;;;;;;;7.00;6.67;;;;;24.45;34.43;101828.22;5055365;28;46579;-72
2022/05/07 13:45:38;;;;;;;;;6.00;5.33;;;;;24.53;33.69;101846.69;5055901;28;45552;-71
2022/05/07 13:48:08;;;;;;;;;8.67;8.67;;;;;24.38;35.28;101816.00;5054151;28;45808;-72
2022/05/07 13:50:34;;;;;;;;;9.00;5.67;;;;;24.25;35.42;101769.19;5056415;28;45406;-71
2022/05/07 13:53:00;;;;;;;;;11.00;9.33;;;;;24.63;35.70;101817.72;5045097;28;48423;-69
2022/05/07 13:55:26;;;;;;;;;6.33;5.67;;;;;24.75;35.21;101833.34;5055345;28;45964;-70
2022/05/07 13:57:52;;;;;;;;;5.00;5.00;;;;;24.77;34.87;101812.69;5055618;28;45430;-70
2022/05/07 14:00:21;;;;;;;;;6.00;5.67;;;;;24.90;34.40;101816.63;5055936;28;45890;-76
2022/05/07 14:02:48;;;;;;;;;8.67;7.33;;;;;24.73;34.93;101778.94;5057217;28;46140;-71
2022/05/07 14:05:14;;;;;;;;;5.33;5.00;;;;;24.89;34.15;101788.09;5057781;28;45410;-73
2022/05/07 14:07:40;;;;;;;;;8.00;6.00;;;;;25.16;33.43;101828.09;5058596;28;45443;-73
2022/05/07 14:10:07;;;;;;;;;6.67;6.67;;;;;25.08;32.93;101819.47;5058232;28;45547;-72
2022/05/07 14:12:34;;;;;;;;;6.33;6.00;;;;;24.85;32.90;101786.47;5057972;28;46106;-72
2022/05/07 14:15:01;;;;;;;;;7.00;7.00;;;;;24.90;33.43;101792.50;5056864;28;45479;-73
2022/05/07 14:17:28;;;;;;;;;8.33;8.33;;;;;24.82;34.19;101783.03;5057331;28;46090;-73
2022/05/07 14:19:54;;;;;;;;;9.33;9.00;;;;;25.07;35.43;101796.31;5057270;28;45544;-72
2022/05/07 14:22:20;;;;;;;;;8.33;6.67;;;;;24.95;35.10;101758.34;5057804;28;45604;-72
2022/05/07 14:24:46;;;;;;;;;9.00;8.67;;;;;25.27;33.67;101799.06;5058721;28;45617;-73
2022/05/07 14:27:12;;;;;;;;;7.33;7.00;;;;;25.05;34.94;101752.59;5057833;28;45597;-72
2022/05/07 14:29:38;;;;;;;;;7.67;7.00;;;;;25.21;34.01;101766.25;5059460;28;45355;-72
2022/05/07 14:32:04;;;;;;;;;5.67;5.67;;;;;25.18;33.92;101751.19;5055849;28;45663;-72
2022/05/07 14:34:30;;;;;;;;;5.00;5.00;;;;;25.41;32.82;101773.44;5057763;28;45718;-71
2022/05/07 14:36:56;;;;;;;;;5.00;5.00;;;;;25.43;33.50;101782.28;5052854;28;45193;-73
2022/05/07 14:39:22;;;;;;;;;5.67;5.00;;;;;25.30;32.31;101772.09;5039363;28;45642;-72
2022/05/07 14:41:47;;;;;;;;;5.67;5.67;;;;;25.12;32.41;101778.22;5038908;28;45530;-72
2022/05/07 14:44:13;;;;;;;;;6.67;5.33;;;;;24.82;32.82;101761.59;5039031;28;45590;-73
2022/05/07 14:46:39;;;;;;;;;5.00;5.00;;;;;24.72;32.51;101770.00;5039696;28;45333;-72
2022/05/07 14:49:10;;;;;;;;;8.33;4.67;;;;;24.56;32.40;101760.88;5039351;28;45361;-72
2022/05/07 14:51:37;;;;;;;;;4.00;4.00;;;;;24.26;32.99;101701.38;5038731;28;45343;-72
2022/05/07 14:54:04;;;;;;;;;5.00;4.00;;;;;24.71;33.14;101762.94;5038931;28;45421;-72
2022/05/07 14:56:30;;;;;;;;;7.00;5.00;;;;;24.62;32.34;101738.31;5038541;28;45394;-71
2022/05/07 14:58:57;;;;;;;;;6.00;5.00;;;;;24.68;32.69;101751.47;5039951;28;45390;-71
2022/05/07 15:01:23;;;;;;;;;4.67;4.00;;;;;24.52;31.59;101725.31;5038601;28;46219;-71
2022/05/07 15:03:49;;;;;;;;;5.00;5.00;;;;;24.63;31.84;101734.69;5038834;28;45465;-73
2022/05/07 15:06:16;;;;;;;;;4.00;4.00;;;;;24.81;31.99;101744.66;5021450;28;45415;-72
2022/05/07 15:11:26;;;;;;;;;4.00;4.00;;;;;24.85;32.10;101738.25;5038513;28;45851;-72
2022/05/07 15:13:52;;;;;;;;;1.33;1.33;;;;;24.89;32.05;101744.34;5038012;28;45332;-71
2022/05/07 15:16:18;;;;;;;;;6.00;6.00;;;;;24.85;31.13;101740.94;5038824;28;45564;-71
2022/05/07 15:18:45;;;;;;;;;8.00;5.00;;;;;24.79;30.79;101738.50;5039177;28;45365;-73
2022/05/07 15:21:12;;;;;;;;;7.00;5.00;;;;;24.72;30.84;101727.16;5038625;28;46205;-72
2022/05/07 15:23:38;;;;;;;;;3.00;3.00;;;;;24.77;31.88;101726.97;5037091;28;45705;-73
2022/05/07 15:26:04;;;;;;;;;6.00;4.00;;;;;24.84;31.89;101724.91;5038597;28;45408;-72
2022/05/07 15:28:30;;;;;;;;;5.67;4.00;;;;;24.98;32.13;101728.72;5039065;28;45311;-71
2022/05/07 15:30:56;;;;;;;;;4.00;3.67;;;;;25.14;31.86;101728.09;5038130;28;46273;-71
2022/05/07 15:38:57;;;;;;;;;7.00;4.00;;;;;25.01;29.95;101714.34;5038392;28;45251;-71
2022/05/07 15:41:23;;;;;;;;;4.00;4.00;;;;;24.91;30.37;101734.41;5036750;28;45526;-74
2022/05/07 15:43:49;;;;;;;;;5.00;4.00;;;;;24.81;30.46;101719.69;5038838;28;45687;-72
2022/05/07 15:46:16;;;;;;;;;6.00;4.00;;;;;24.76;30.18;101728.78;5038702;28;45358;-72
2022/05/07 15:48:43;;;;;;;;;4.00;4.00;;;;;24.76;30.47;101728.78;5038911;28;45407;-72
2022/05/07 15:51:10;;;;;;;;;3.33;3.33;;;;;24.75;30.79;101715.47;5020364;28;46718;-71
2022/05/07 15:53:36;;;;;;;;;3.00;3.00;;;;;24.80;30.35;101713.47;5038233;28;45838;-72
2022/05/07 15:56:02;;;;;;;;;5.67;5.67;;;;;24.87;32.80;101709.59;5038013;28;45472;-75
2022/05/07 15:58:27;;;;;;;;;5.00;5.00;;;;;24.99;31.42;101718.91;5038332;28;45465;-72
2022/05/07 16:00:54;;;;;;;;;4.00;3.67;;;;;25.01;30.63;101730.44;5037749;28;46118;-70
2022/05/07 16:03:27;;;;;;;;;4.00;4.00;;;;;24.92;29.82;101718.28;5037848;28;45249;-69
2022/05/07 16:05:52;;;;;;;;;3.00;3.00;;;;;24.88;30.51;101726.53;5020237;28;45476;-71
2022/05/07 16:08:18;;;;;;;;;4.00;4.00;;;;;24.83;30.34;101729.41;5038081;28;45529;-69
2022/05/07 16:10:44;;;;;;;;;4.67;3.67;;;;;24.73;30.63;101725.38;5038216;28;46062;-69
2022/05/07 16:13:12;;;;;;;;;4.67;4.67;;;;;24.70;30.78;101729.03;5037955;28;45391;-70
2022/05/07 16:15:38;;;;;;;;;9.00;5.00;;;;;24.69;30.78;101731.78;5037464;28;45170;-69
2022/05/07 16:18:05;;;;;;;;;5.67;5.00;;;;;24.55;31.51;101719.81;5019527;28;45693;-71
2022/05/07 16:20:32;;;;;;;;;7.33;7.33;;;;;24.46;31.80;101725.53;5037076;28;46218;-72
2022/05/07 16:25:42;;;;;;;;;6.00;5.00;;;;;24.02;31.73;101722.81;5036534;28;45434;-73
2022/05/07 16:28:09;;;;;;;;;6.00;5.00;;;;;23.80;31.83;101703.13;5037537;28;45849;-71
2022/05/07 16:30:35;;;;;;;;;4.67;4.67;;;;;23.70;32.16;101724.88;5037448;28;45396;-71
2022/05/07 16:33:00;;;;;;;;;7.67;4.33;;;;;23.64;31.61;101732.25;5037335;28;45568;-71
2022/05/07 16:35:26;;;;;;;;;6.33;4.33;;;;;23.49;31.87;101720.28;5036213;28;45835;-72
2022/05/07 16:37:51;;;;;;;;;7.33;5.00;;;;;23.48;33.43;101722.09;5037685;28;45383;-72
2022/05/07 16:40:23;;;;;;;;;3.67;3.67;;;;;23.44;34.29;101728.50;5037232;28;46209;-72
2022/05/07 16:42:49;;;;;;;;;6.00;4.00;;;;;23.40;34.45;101731.34;5035860;28;45619;-69
2022/05/07 16:45:15;;;;;;;;;5.67;5.67;;;;;23.26;35.07;101723.81;5037857;28;45320;-72
2022/05/07 16:47:41;;;;;;;;;4.00;4.00;;;;;23.32;35.10;101738.75;5037797;28;45315;-69
2022/05/07 16:50:07;;;;;;;;;4.00;4.00;;;;;23.29;35.39;101745.94;5037320;28;45416;-68
2022/05/07 16:52:33;;;;;;;;;4.00;3.00;;;;;23.26;35.43;101745.19;5036692;28;45333;-68
2022/05/07 16:54:59;;;;;;;;;4.33;4.33;;;;;23.11;35.78;101727.00;5037153;28;45447;-69
2022/05/07 16:57:25;;;;;;;;;3.67;3.00;;;;;23.14;35.78;101748.28;5037402;28;45400;-72
2022/05/07 16:59:51;;;;;;;;;4.00;4.00;;;;;23.12;35.63;101739.44;5037107;28;46554;-70
2022/05/07 17:02:17;;;;;;;;;3.00;3.00;;;;;23.08;35.94;101742.22;5019455;28;45374;-73
2022/05/07 17:04:42;;;;;;;;;2.33;2.33;;;;;23.04;35.73;101742.38;5037269;28;45598;-69
2022/05/07 17:07:08;;;;;;;;;4.00;4.00;;;;;23.02;36.14;101741.56;5037374;28;45408;-71
2022/05/07 17:09:40;;;;;;;;;5.33;4.00;;;;;22.87;36.02;101718.88;5037127;28;46479;-69
2022/05/07 17:12:10;;;;;;;;;6.67;5.00;;;;;22.93;35.89;101729.34;5037370;28;45443;-71
2022/05/07 17:14:37;;;;;;;;;5.00;4.33;;;;;22.99;35.91;101741.66;5037455;28;45442;-71
2022/05/07 17:17:04;;;;;;;;;3.33;3.00;;;;;22.92;36.11;101730.28;5037347;28;45290;-71
2022/05/07 17:19:30;;;;;;;;;3.00;3.00;;;;;22.93;36.13;101736.50;5036999;28;46419;-70
2022/05/07 17:21:55;;;;;;;;;4.67;3.00;;;;;22.89;36.15;101735.72;5036692;28;45551;-69
2022/05/07 17:24:21;;;;;;;;;4.33;4.00;;;;;22.84;36.17;101732.34;5037365;28;45382;-69
2022/05/07 17:26:58;;;;;;;;;3.33;3.33;;;;;22.67;36.21;101713.34;5037779;28;45445;-68
2022/05/07 17:29:24;;;;;;;;;3.33;3.00;;;;;22.74;36.20;101747.78;5036799;28;45508;-70
2022/05/07 17:31:49;;;;;;;;;2.67;2.67;;;;;22.73;36.23;101742.50;5037336;28;45454;-69
2022/05/07 17:34:15;;;;;;;;;2.33;2.00;;;;;22.73;36.16;101745.16;5038097;28;45411;-70